Time;durP1;ratioP1;P1;durP2;ratioP2;P2;SDS_P1;SDS_P2;PMS_P1;PMS_P2;Temp;Humidity;BMP_temperature;BMP_pressure;BME280_temperature;BME280_humidity;BME280_pressure;Samples;Min_cycle;Max_cycle;Signal;HPM_P1;HPM_P2
2022/01/06 00:02:10;;;;;;;8.05;3.97;;;;;;;1.90;100.00;98320.19;5084061;28;20344;-78
2022/01/06 00:04:54;;;;;;;9.48;4.15;;;;;;;1.97;100.00;98320.97;5112574;28;20036;-77
2022/01/06 00:07:39;;;;;;;10.25;4.15;;;;;;;2.00;100.00;98323.50;5069765;28;20048;-76
2022/01/06 00:10:26;;;;;;;8.45;3.22;;;;;;;2.10;100.00;98317.31;5083974;28;20047;-77
2022/01/06 00:13:16;;;;;;;10.45;2.78;;;;;;;2.07;100.00;98301.88;5069723;28;20074;-77
2022/01/06 00:16:10;;;;;;;6.78;3.05;;;;;;;2.18;100.00;98314.63;5083702;28;20055;-77
2022/01/06 00:24:51;;;;;;;9.57;3.63;;;;;;;2.33;100.00;98329.91;5098564;28;19927;-76
2022/01/06 00:27:35;;;;;;;10.73;3.63;;;;;;;2.33;100.00;98329.91;5069385;28;20047;-77
2022/01/06 00:30:19;;;;;;;7.03;2.45;;;;;;;2.41;100.00;98334.97;5098494;28;20065;-77
2022/01/06 00:33:04;;;;;;;7.00;3.25;;;;;;;2.23;100.00;98329.19;5083409;28;20424;-77
2022/01/06 00:35:50;;;;;;;6.07;2.95;;;;;;;2.28;100.00;98342.06;5083408;28;20047;-77
2022/01/06 00:38:35;;;;;;;6.60;2.75;;;;;;;2.41;100.00;98341.00;5098142;28;20424;-76
2022/01/06 00:41:20;;;;;;;7.38;2.13;;;;;;;2.30;100.00;98346.28;5111777;28;20064;-76
2022/01/06 00:44:07;;;;;;;6.75;2.55;;;;;;;2.41;100.00;98345.31;5083356;28;20040;-77
2022/01/06 00:46:52;;;;;;;4.85;1.83;;;;;;;2.43;100.00;98348.69;5069020;28;20117;-77
2022/01/06 00:49:36;;;;;;;5.18;2.00;;;;;;;2.42;100.00;98350.44;5083031;28;20044;-77
2022/01/06 00:52:21;;;;;;;7.70;2.20;;;;;;;2.37;100.00;98357.41;5082906;28;20063;-77
2022/01/06 00:55:06;;;;;;;5.07;2.13;;;;;;;2.40;100.00;98359.09;5083126;28;20329;-77
2022/01/06 00:57:55;;;;;;;6.47;1.83;;;;;;;2.42;100.00;98355.59;5097918;28;20089;-77
2022/01/06 01:00:40;;;;;;;6.18;2.70;;;;;;;2.48;100.00;98370.16;5068871;28;20039;-77
2022/01/06 01:03:25;;;;;;;5.70;1.73;;;;;;;2.48;100.00;98365.00;5068849;28;20052;-77
2022/01/06 01:06:10;;;;;;;6.88;2.20;;;;;;;2.54;100.00;98372.66;5111463;28;20040;-77
2022/01/06 01:08:54;;;;;;;10.88;3.60;;;;;;;2.60;100.00;98372.56;5082550;28;20048;-77
2022/01/06 01:11:39;;;;;;;6.05;2.58;;;;;;;2.56;100.00;98368.31;5097582;28;20059;-78
2022/01/06 01:14:29;;;;;;;6.03;2.53;;;;;;;2.55;100.00;98377.78;5082710;28;20048;-77
2022/01/06 01:17:15;;;;;;;6.05;2.08;;;;;;;2.52;100.00;98371.81;5082642;28;20044;-77
2022/01/06 01:20:02;;;;;;;4.50;2.53;;;;;;;2.58;100.00;98380.34;5082773;28;20094;-76
2022/01/06 01:22:47;;;;;;;5.60;2.85;;;;;;;2.66;100.00;98379.34;5082437;28;20056;-77
2022/01/06 01:25:31;;;;;;;8.23;3.10;;;;;;;2.63;100.00;98380.25;5097361;28;20105;-77
2022/01/06 01:28:17;;;;;;;6.13;2.58;;;;;;;2.72;100.00;98385.28;5097346;28;20329;-76
2022/01/06 01:31:13;;;;;;;4.13;2.00;;;;;;;2.83;100.00;98379.97;5082364;28;20047;-77
2022/01/06 01:34:02;;;;;;;6.32;2.08;;;;;;;2.85;100.00;98379.91;5082290;28;20036;-77
2022/01/06 01:36:46;;;;;;;9.27;1.67;;;;;;;2.83;100.00;98381.66;5068069;28;20036;-77
2022/01/06 01:39:31;;;;;;;4.82;2.10;;;;;;;2.87;100.00;98383.34;5082054;28;20044;-77
2022/01/06 01:42:16;;;;;;;3.15;1.35;;;;;;;2.90;100.00;98397.06;5097082;28;20040;-77
2022/01/06 01:45:02;;;;;;;4.35;1.70;;;;;;;2.90;100.00;98398.81;5082101;28;20424;-77
2022/01/06 01:47:47;;;;;;;4.80;1.40;;;;;;;2.87;100.00;98399.72;5096915;28;20040;-77
2022/01/06 01:50:32;;;;;;;3.55;1.60;;;;;;;2.90;100.00;98396.22;5110597;28;20051;-77
2022/01/06 01:53:16;;;;;;;4.38;1.00;;;;;;;2.95;100.00;98396.97;5096383;28;20052;-77
2022/01/06 01:56:05;;;;;;;4.88;2.00;;;;;;;2.94;100.00;98403.91;5067765;28;20047;-77
2022/01/06 01:58:50;;;;;;;4.13;1.40;;;;;;;3.00;100.00;98397.78;5096624;28;20333;-77
2022/01/06 02:01:35;;;;;;;2.72;1.35;;;;;;;3.09;100.00;98413.16;5096713;28;20047;-77
2022/01/06 02:04:19;;;;;;;4.90;1.65;;;;;;;2.83;100.00;98385.13;5081771;28;20115;-77
2022/01/06 02:07:04;;;;;;;6.63;2.13;;;;;;;2.96;100.00;98406.47;5081607;28;20340;-77
2022/01/06 02:09:48;;;;;;;4.35;1.63;;;;;;;2.88;100.00;98406.56;5096627;28;20036;-77
2022/01/06 02:12:36;;;;;;;5.25;1.73;;;;;;;3.03;100.00;98415.84;5081545;28;20048;-76
2022/01/06 02:15:21;;;;;;;5.65;1.95;;;;;;;2.94;100.00;98415.97;5110118;28;20046;-76
2022/01/06 02:18:06;;;;;;;4.18;2.03;;;;;;;2.95;100.00;98412.50;5096353;28;20052;-77
2022/01/06 02:20:51;;;;;;;3.85;1.25;;;;;;;2.98;100.00;98421.06;5081450;28;20047;-77
2022/01/06 02:23:35;;;;;;;2.63;1.20;;;;;;;2.87;100.00;98399.72;5096283;28;20106;-77
2022/01/06 02:26:20;;;;;;;4.05;1.40;;;;;;;2.95;100.00;98422.84;5081457;28;20048;-76
2022/01/06 02:29:06;;;;;;;2.88;1.00;;;;;;;2.99;100.00;98421.91;5067463;28;20044;-78
2022/01/06 02:31:50;;;;;;;4.75;1.23;;;;;;;2.94;100.00;98418.56;5096193;28;20115;-77
2022/01/06 02:34:35;;;;;;;5.20;1.98;;;;;;;2.90;100.00;98396.22;5081222;28;20048;-77
2022/01/06 02:37:19;;;;;;;4.85;0.85;;;;;;;2.99;100.00;98427.97;5096263;28;20048;-77
2022/01/06 02:40:13;;;;;;;2.45;1.30;;;;;;;3.03;100.00;98419.28;5081399;28;20044;-77
2022/01/06 02:42:59;;;;;;;3.65;1.70;;;;;;;3.06;100.00;98422.69;5096120;28;20376;-77
2022/01/06 02:45:46;;;;;;;3.70;1.48;;;;;;;2.98;100.00;98410.72;5067146;28;20048;-77
2022/01/06 02:48:31;;;;;;;3.97;1.25;;;;;;;2.97;100.00;98413.34;5096130;28;20044;-77
2022/01/06 02:51:15;;;;;;;2.88;1.02;;;;;;;2.93;100.00;98424.63;5066800;28;20036;-77
2022/01/06 02:54:00;;;;;;;2.42;1.35;;;;;;;2.85;100.00;98421.28;5081202;28;20040;-77
2022/01/06 02:56:44;;;;;;;4.85;2.05;;;;;;;2.92;100.00;98435.84;5095913;28;20109;-77
2022/01/06 02:59:29;;;;;;;5.25;1.95;;;;;;;2.93;100.00;98437.56;5081032;28;20067;-77
2022/01/06 03:02:13;;;;;;;2.58;1.13;;;;;;;2.75;100.00;98442.13;5081065;28;20048;-77
2022/01/06 03:04:58;;;;;;;2.03;1.05;;;;;;;2.84;100.00;98450.63;5099021;28;20101;-77
2022/01/06 03:07:44;;;;;;;2.83;1.33;;;;;;;2.90;100.00;98458.31;5085064;28;20451;-76
2022/01/06 03:10:30;;;;;;;3.60;0.90;;;;;;;2.89;100.00;98457.41;5099391;28;20036;-77
2022/01/06 03:13:15;;;;;;;3.90;1.30;;;;;;;2.65;100.00;98437.97;5070856;28;20466;-77
2022/01/06 03:16:01;;;;;;;2.47;1.00;;;;;;;2.90;100.00;98450.53;5113811;28;20047;-77
2022/01/06 03:18:46;;;;;;;2.03;1.05;;;;;;;2.76;100.00;98448.16;5070685;28;20044;-77
2022/01/06 03:21:30;;;;;;;3.15;0.90;;;;;;;2.92;100.00;98456.53;5084925;28;20035;-77
2022/01/06 03:24:16;;;;;;;1.42;1.10;;;;;;;2.87;100.00;98445.41;5084747;28;20051;-77
2022/01/06 03:27:00;;;;;;;4.53;2.05;;;;;;;2.90;100.00;98453.97;5084866;28;20131;-77
2022/01/06 03:29:45;;;;;;;4.90;1.58;;;;;;;2.97;100.00;98460.75;5084590;28;20051;-77
2022/01/06 03:32:29;;;;;;;4.38;1.63;;;;;;;2.93;100.00;98456.53;5113367;28;20115;-77
2022/01/06 03:35:17;;;;;;;6.05;1.05;;;;;;;2.94;100.00;98458.22;5084703;28;20345;-77
2022/01/06 03:38:01;;;;;;;2.80;1.40;;;;;;;3.02;100.00;98450.31;5099429;28;20044;-77
2022/01/06 03:40:46;;;;;;;6.75;1.85;;;;;;;2.98;100.00;98451.25;5070283;28;20040;-76
2022/01/06 03:43:30;;;;;;;4.20;1.80;;;;;;;2.98;100.00;98453.84;5099497;28;20052;-77
2022/01/06 03:46:14;;;;;;;5.43;1.40;;;;;;;3.07;100.00;98453.69;5084344;28;20420;-77
2022/01/06 03:48:58;;;;;;;3.85;1.20;;;;;;;3.01;100.00;98453.78;5099527;28;20340;-77
2022/01/06 03:51:43;;;;;;;3.22;0.95;;;;;;;3.08;100.00;98467.47;5084100;28;20448;-77
2022/01/06 03:54:28;;;;;;;3.65;1.40;;;;;;;3.05;100.00;98468.38;5084303;28;20459;-77
2022/01/06 03:57:13;;;;;;;4.65;1.48;;;;;;;3.03;100.00;98460.66;5099113;28;20054;-77
2022/01/06 03:59:57;;;;;;;4.18;1.17;;;;;;;3.16;100.00;98465.63;5112789;28;20036;-77
2022/01/06 04:02:43;;;;;;;3.53;1.10;;;;;;;3.04;100.00;98461.50;5083932;28;20051;-77
2022/01/06 04:05:27;;;;;;;2.22;1.13;;;;;;;3.00;100.00;98459.84;5084104;28;20036;-77
2022/01/06 04:08:12;;;;;;;4.97;0.88;;;;;;;2.88;100.00;98471.25;5083916;28;20051;-77
2022/01/06 04:10:56;;;;;;;4.07;1.05;;;;;;;2.95;100.00;98484.94;5083837;28;20036;-77
2022/01/06 04:13:41;;;;;;;3.50;1.20;;;;;;;2.90;100.00;98481.56;5083772;28;20051;-77
2022/01/06 04:16:27;;;;;;;7.07;1.20;;;;;;;2.71;100.00;98474.09;5083459;28;20051;-77
2022/01/06 04:19:12;;;;;;;2.03;0.80;;;;;;;2.73;100.00;98477.50;5069748;28;20097;-76
2022/01/06 04:21:56;;;;;;;6.43;1.95;;;;;;;2.72;100.00;98478.38;5098654;28;20040;-77
2022/01/06 04:24:40;;;;;;;5.88;1.20;;;;;;;2.86;100.00;98482.47;5069576;28;20455;-77
2022/01/06 04:27:24;;;;;;;3.28;1.25;;;;;;;2.85;100.00;98473.03;5083729;28;20044;-76
2022/01/06 04:30:10;;;;;;;4.10;1.30;;;;;;;2.78;100.00;98474.84;5097823;28;20036;-77
2022/01/06 04:32:54;;;;;;;5.72;1.52;;;;;;;2.88;100.00;98491.94;5112077;28;20055;-77
2022/01/06 04:35:38;;;;;;;5.13;1.25;;;;;;;2.93;100.00;98484.13;5098344;28;20047;-77
2022/01/06 04:38:22;;;;;;;2.75;1.05;;;;;;;2.91;100.00;98493.63;5083417;28;20111;-77
2022/01/06 04:41:07;;;;;;;3.75;1.20;;;;;;;2.95;100.00;98485.78;5098347;28;20447;-77
2022/01/06 04:43:51;;;;;;;3.20;1.02;;;;;;;2.96;100.00;98492.69;5111886;28;20044;-77
2022/01/06 04:46:35;;;;;;;5.82;1.30;;;;;;;2.98;100.00;98480.56;5083122;28;20040;-77
2022/01/06 04:49:22;;;;;;;5.65;1.10;;;;;;;3.07;100.00;98502.00;5069107;28;20052;-77
2022/01/06 04:52:07;;;;;;;4.82;1.13;;;;;;;2.98;100.00;98498.66;5097898;28;20439;-77
2022/01/06 04:54:51;;;;;;;8.38;2.00;;;;;;;3.07;100.00;98502.00;5083044;28;20040;-77
2022/01/06 04:57:36;;;;;;;4.10;1.33;;;;;;;2.97;100.00;98503.88;5097876;28;20365;-76
2022/01/06 05:00:21;;;;;;;5.00;1.77;;;;;;;2.91;100.00;98498.78;5097894;28;20103;-76
2022/01/06 05:03:05;;;;;;;5.65;1.33;;;;;;;2.99;100.00;98518.50;5068793;28;20050;-76
2022/01/06 05:05:49;;;;;;;5.82;1.20;;;;;;;2.89;100.00;98487.59;5082733;28;20044;-77
2022/01/06 05:08:34;;;;;;;4.88;1.15;;;;;;;2.95;100.00;98515.97;5097787;28;20048;-77
2022/01/06 05:11:19;;;;;;;5.38;1.10;;;;;;;3.01;100.00;98521.91;5111421;28;20036;-77
2022/01/06 05:14:04;;;;;;;6.50;1.38;;;;;;;2.93;100.00;98508.25;5082690;28;20036;-77
2022/01/06 05:16:49;;;;;;;6.88;1.45;;;;;;;2.91;100.00;98517.75;5097536;28;20448;-77
2022/01/06 05:19:33;;;;;;;8.48;1.20;;;;;;;2.89;100.00;98516.06;5082392;28;20048;-76
2022/01/06 05:22:18;;;;;;;4.85;1.27;;;;;;;3.01;100.00;98526.22;5097561;28;20040;-77
2022/01/06 05:25:02;;;;;;;4.88;0.93;;;;;;;2.91;100.00;98515.16;5082651;28;20046;-77
2022/01/06 05:27:47;;;;;;;4.63;1.00;;;;;;;2.96;100.00;98512.53;5096492;28;20110;-77
2022/01/06 05:30:31;;;;;;;2.20;0.73;;;;;;;2.93;100.00;98518.59;5097490;28;20041;-77
2022/01/06 05:33:16;;;;;;;3.75;0.80;;;;;;;2.85;100.00;98519.56;5082271;28;20040;-77
2022/01/06 05:36:00;;;;;;;2.63;0.70;;;;;;;2.80;100.00;98522.25;5097222;28;20040;-77
2022/01/06 05:38:45;;;;;;;6.55;0.80;;;;;;;2.84;100.00;98529.06;5082096;28;20044;-77
2022/01/06 05:41:29;;;;;;;6.47;0.93;;;;;;;2.65;100.00;98533.63;5097156;28;20040;-77
2022/01/06 05:44:13;;;;;;;4.43;0.98;;;;;;;2.76;100.00;98539.53;5082099;28;20058;-77
2022/01/06 05:46:58;;;;;;;3.95;1.10;;;;;;;2.84;100.00;98543.72;5096277;28;20036;-77
2022/01/06 05:49:43;;;;;;;4.32;1.65;;;;;;;2.83;100.00;98552.34;5067860;28;20048;-77
2022/01/06 05:52:27;;;;;;;8.30;1.48;;;;;;;2.84;100.00;98554.94;5096030;28;20048;-77
2022/01/06 05:55:11;;;;;;;8.40;1.50;;;;;;;2.92;100.00;98565.16;5081987;28;20044;-77
2022/01/06 05:57:55;;;;;;;5.55;1.25;;;;;;;2.78;100.00;98558.44;5067676;28;20352;-76
2022/01/06 06:00:39;;;;;;;4.72;1.25;;;;;;;2.89;100.00;98566.03;5067766;28;20040;-76
2022/01/06 06:03:27;;;;;;;6.57;2.35;;;;;;;2.90;100.00;98566.94;5081671;28;20440;-77
2022/01/06 06:06:11;;;;;;;3.70;0.98;;;;;;;2.96;100.00;98566.84;5081728;28;20131;-77
2022/01/06 06:08:56;;;;;;;7.13;1.45;;;;;;;2.84;100.00;98559.25;5096526;28;20093;-76
2022/01/06 06:11:40;;;;;;;6.15;1.60;;;;;;;2.84;100.00;98577.34;5081444;28;20071;-77
2022/01/06 06:14:24;;;;;;;5.47;1.20;;;;;;;2.86;100.00;98578.16;5096639;28;20043;-77
2022/01/06 06:17:09;;;;;;;2.50;0.88;;;;;;;2.81;100.00;98575.66;5096070;28;20040;-77
2022/01/06 06:19:54;;;;;;;2.88;0.90;;;;;;;2.93;100.00;98577.22;5081379;28;20040;-77
2022/01/06 06:22:38;;;;;;;4.10;1.30;;;;;;;2.84;100.00;98572.19;5096331;28;20047;-77
2022/01/06 06:25:23;;;;;;;4.63;1.70;;;;;;;2.81;100.00;98597.19;5096422;28;20044;-76
2022/01/06 06:28:08;;;;;;;2.72;0.80;;;;;;;2.90;100.00;98616.94;5096386;28;20351;-76
2022/01/06 06:30:53;;;;;;;4.07;1.20;;;;;;;2.71;100.00;98623.19;5081378;28;20446;-78
2022/01/06 06:33:37;;;;;;;10.40;3.78;;;;;;;2.51;100.00;98636.38;5081316;28;20044;-78
2022/01/06 06:36:21;;;;;;;14.40;4.68;;;;;;;2.29;100.00;98634.00;5081312;28;20044;-78
2022/01/06 06:39:06;;;;;;;46.85;15.63;;;;;;;2.19;100.00;98634.97;5081021;28;20063;-78
2022/01/06 06:41:51;;;;;;;62.67;20.98;;;;;;;2.07;100.00;98653.16;5112363;28;20139;-77
2022/01/06 06:44:36;;;;;;;54.50;20.20;;;;;;;1.81;100.00;98636.16;5081137;28;20097;-76
2022/01/06 06:47:20;;;;;;;138.05;46.72;;;;;;;1.85;100.00;98665.41;5095907;28;20039;-76
2022/01/06 06:50:05;;;;;;;29.88;10.93;;;;;;;1.67;100.00;98674.16;5065735;28;20051;-78
2022/01/06 06:52:50;;;;;;;27.42;8.95;;;;;;;1.70;100.00;98679.31;5079085;28;20063;-78
2022/01/06 06:55:34;;;;;;;14.15;5.20;;;;;;;1.72;100.00;98682.72;5078890;28;20036;-79
2022/01/06 06:58:19;;;;;;;24.13;7.07;;;;;;;1.67;100.00;98676.75;5078796;28;20047;-78
2022/01/06 07:01:03;;;;;;;47.58;16.73;;;;;;;1.64;100.00;98672.44;5078885;28;20048;-78
2022/01/06 07:03:48;;;;;;;9.38;3.65;;;;;;;1.48;100.00;98685.47;5094336;28;20105;-77
2022/01/06 07:06:32;;;;;;;2.45;1.45;;;;;;;1.43;100.00;98701.00;5080221;28;20044;-78
2022/01/06 07:09:17;;;;;;;5.63;3.97;;;;;;;1.50;100.00;98717.31;5094150;28;20036;-77
2022/01/06 07:12:01;;;;;;;6.05;2.70;;;;;;;1.36;100.00;98707.88;5065036;28;20040;-77
2022/01/06 07:14:45;;;;;;;8.32;1.50;;;;;;;1.42;100.00;98708.72;5094118;28;20398;-77
2022/01/06 07:17:30;;;;;;;6.20;1.70;;;;;;;1.33;100.00;98701.88;5094100;28;20046;-77
2022/01/06 07:20:14;;;;;;;4.60;2.28;;;;;;;1.19;100.00;98704.56;5094115;28;20044;-77
2022/01/06 07:22:59;;;;;;;4.28;1.88;;;;;;;1.24;100.00;98705.41;5080259;28;20040;-78
2022/01/06 07:25:43;;;;;;;6.35;3.42;;;;;;;1.33;100.00;98725.09;5081018;28;20333;-77
2022/01/06 07:28:28;;;;;;;4.60;2.25;;;;;;;1.16;100.00;98705.41;5096394;28;20044;-78
2022/01/06 07:31:12;;;;;;;6.15;2.63;;;;;;;1.22;100.00;98714.84;5096395;28;20044;-77
2022/01/06 07:33:57;;;;;;;12.50;3.05;;;;;;;1.22;100.00;98730.34;5067319;28;20040;-77
2022/01/06 07:36:42;;;;;;;8.38;2.75;;;;;;;1.15;100.00;98729.50;5081420;28;20051;-77
2022/01/06 07:39:26;;;;;;;5.78;1.55;;;;;;;1.04;100.00;98720.97;5066568;28;20119;-77
2022/01/06 07:42:11;;;;;;;6.38;3.45;;;;;;;1.13;100.00;98743.25;5096294;28;20044;-77
2022/01/06 07:44:56;;;;;;;18.35;9.60;;;;;;;1.09;100.00;98734.69;5081226;28;20040;-76
2022/01/06 07:47:54;;;;;;;34.88;18.88;;;;;;;0.96;100.00;98725.28;5081259;28;20413;-77
2022/01/06 07:50:39;;;;;;;239.02;97.35;;;;;;;1.05;100.00;98745.03;5097191;28;20083;-77
2022/01/06 07:53:23;;;;;;;633.03;289.42;;;;;;;1.10;100.00;98757.03;5113599;28;20048;-77
2022/01/06 07:56:07;;;;;;;272.20;116.03;;;;;;;1.12;100.00;98762.19;5084320;28;20048;-77
2022/01/06 07:58:52;;;;;;;70.20;32.10;;;;;;;1.08;100.00;98768.25;5099463;28;20047;-77
2022/01/06 08:01:36;;;;;;;74.50;45.22;;;;;;;1.05;100.00;98757.94;5084472;28;20044;-77
2022/01/06 08:04:20;;;;;;;52.88;37.17;;;;;;;1.13;100.00;98769.06;5084138;28;20043;-77
2022/01/06 08:07:05;;;;;;;11.60;9.82;;;;;;;1.08;100.00;98763.06;5084135;28;20068;-77
2022/01/06 08:09:50;;;;;;;16.73;11.05;;;;;;;1.10;100.00;98784.53;5084335;28;20048;-77
2022/01/06 08:12:35;;;;;;;12.80;8.27;;;;;;;1.10;100.00;98790.56;5069939;28;20108;-77
2022/01/06 08:15:20;;;;;;;18.17;13.10;;;;;;;1.08;100.00;98781.13;5084017;28;20160;-77
2022/01/06 08:18:04;;;;;;;34.97;18.48;;;;;;;1.31;100.00;98801.69;5098867;28;20093;-77
2022/01/06 08:20:49;;;;;;;79.15;27.45;;;;;;;1.35;100.00;98813.69;5098882;28;20044;-77
2022/01/06 08:23:34;;;;;;;19.92;9.63;;;;;;;1.22;100.00;98802.56;5098786;28;20040;-77
2022/01/06 08:26:18;;;;;;;35.30;16.75;;;;;;;1.23;100.00;98808.56;5070052;28;20051;-77
2022/01/06 08:29:03;;;;;;;6.45;5.13;;;;;;;1.12;100.00;98832.69;5099291;28;20082;-77
2022/01/06 08:31:48;;;;;;;8.80;4.22;;;;;;;0.99;100.00;98827.56;5083578;28;20044;-77
2022/01/06 08:34:33;;;;;;;13.80;7.25;;;;;;;0.91;100.00;98838.75;5083754;28;20106;-77
2022/01/06 08:37:18;;;;;;;187.88;61.08;;;;;;;1.05;100.00;98832.72;5083504;28;20317;-77
2022/01/06 08:40:03;;;;;;;103.90;36.03;;;;;;;0.97;100.00;98835.28;5098713;28;20073;-77
2022/01/06 08:42:48;;;;;;;118.82;38.53;;;;;;;1.05;100.00;98843.88;5069418;28;20386;-77
2022/01/06 08:45:33;;;;;;;108.68;31.42;;;;;;;0.93;100.00;98852.50;5069211;28;20044;-77
2022/01/06 08:48:18;;;;;;;107.55;31.38;;;;;;;0.91;100.00;98867.13;5083279;28;20048;-77
2022/01/06 08:51:02;;;;;;;93.75;45.13;;;;;;;0.88;100.00;98874.00;5098078;28;20345;-77
2022/01/06 08:53:46;;;;;;;104.07;38.83;;;;;;;0.79;100.00;98874.88;5083215;28;20040;-78
2022/01/06 08:56:30;;;;;;;404.63;138.57;;;;;;;0.74;100.00;98860.25;5083228;28;20044;-78
2022/01/06 08:59:15;;;;;;;127.55;48.28;;;;;;;0.92;100.00;98881.72;5069429;28;20101;-77
2022/01/06 09:01:59;;;;;;;159.75;54.75;;;;;;;0.87;100.00;98893.75;5069422;28;20051;-77
2022/01/06 09:04:44;;;;;;;127.15;47.60;;;;;;;0.83;100.00;98888.63;5069218;28;20458;-78
2022/01/06 09:07:29;;;;;;;97.55;40.13;;;;;;;1.00;100.00;98915.22;5083493;28;20115;-77
2022/01/06 09:10:13;;;;;;;96.88;33.85;;;;;;;1.15;100.00;98917.81;5082857;28;20043;-78
2022/01/06 09:12:57;;;;;;;118.95;41.70;;;;;;;1.14;100.00;98920.41;5083356;28;20040;-78
2022/01/06 09:15:42;;;;;;;71.97;25.05;;;;;;;1.22;100.00;98925.53;5082948;28;20084;-78
2022/01/06 09:18:27;;;;;;;89.88;27.35;;;;;;;1.15;100.00;98920.38;5097935;28;20359;-78
2022/01/06 09:21:12;;;;;;;66.10;24.08;;;;;;;1.17;100.00;98943.63;5111778;28;20052;-78
2022/01/06 09:23:59;;;;;;;54.22;18.27;;;;;;;1.15;100.00;98948.75;5082765;28;20101;-78
2022/01/06 09:26:44;;;;;;;107.50;36.85;;;;;;;1.13;100.00;98941.88;5068597;28;20376;-78
2022/01/06 09:29:28;;;;;;;160.63;61.50;;;;;;;1.09;100.00;98948.75;5082627;28;20437;-78
2022/01/06 09:32:13;;;;;;;58.03;23.20;;;;;;;1.12;100.00;98946.19;5097527;28;20050;-78
2022/01/06 09:34:57;;;;;;;152.60;42.92;;;;;;;1.13;100.00;98941.88;5082206;28;20159;-77
2022/01/06 09:37:42;;;;;;;211.32;61.78;;;;;;;1.20;100.00;98950.47;5067787;28;20109;-78
2022/01/06 09:40:26;;;;;;;97.88;27.85;;;;;;;1.15;100.00;98960.81;5080468;28;20060;-80
2022/01/06 09:43:14;;;;;;;272.38;89.07;;;;;;;1.01;100.00;98965.97;5081716;28;20109;-79
2022/01/06 09:46:08;;;;;;;60.47;20.88;;;;;;;0.98;100.00;98963.41;5081310;28;20035;-79
2022/01/06 09:48:59;;;;;;;90.30;24.75;;;;;;;0.93;100.00;98989.16;5068232;28;20055;-79
2022/01/06 09:51:45;;;;;;;181.05;43.90;;;;;;;0.90;100.00;98996.03;5081935;28;20059;-79
2022/01/06 09:54:30;;;;;;;56.92;15.70;;;;;;;0.84;100.00;98994.31;5082127;28;20036;-78
2022/01/06 09:57:15;;;;;;;46.05;14.68;;;;;;;0.77;100.00;99005.47;5067451;28;20040;-77
2022/01/06 10:00:01;;;;;;;52.05;16.45;;;;;;;0.72;100.00;99009.78;5067941;28;20036;-80
2022/01/06 10:02:53;;;;;;;76.93;22.42;;;;;;;0.56;100.00;99002.88;5067991;28;20089;-80
2022/01/06 10:05:40;;;;;;;74.43;20.58;;;;;;;0.54;100.00;99025.19;5091565;28;20047;-78
2022/01/06 10:08:28;;;;;;;53.00;19.95;;;;;;;0.28;100.00;99023.38;5079782;28;20044;-79
2022/01/06 10:11:18;;;;;;;43.10;16.55;;;;;;;0.23;100.00;99045.72;5080001;28;20078;-79
2022/01/06 10:14:09;;;;;;;49.78;22.02;;;;;;;0.39;100.00;99038.88;5099741;28;20040;-78
2022/01/06 10:16:56;;;;;;;13.50;8.52;;;;;;;0.65;100.00;99050.16;5100818;28;20048;-79
2022/01/06 10:19:44;;;;;;;23.20;11.05;;;;;;;0.69;100.00;99048.44;5101276;28;20032;-78
2022/01/06 10:22:28;;;;;;;17.70;8.30;;;;;;;0.72;100.00;99057.91;5101487;28;20051;-79
2022/01/06 10:25:15;;;;;;;14.57;6.07;;;;;;;0.81;100.00;99073.38;5101539;28;20047;-81
2022/01/06 10:27:59;;;;;;;19.55;6.97;;;;;;;0.95;100.00;99086.31;5087649;28;20039;-80
2022/01/06 10:30:48;;;;;;;26.27;11.48;;;;;;;0.84;100.00;99088.84;5117489;28;20055;-80
2022/01/06 10:33:39;;;;;;;30.58;12.48;;;;;;;0.63;100.00;99077.63;5101882;28;20043;-79
2022/01/06 10:36:29;;;;;;;9.93;5.93;;;;;;;0.48;100.00;99085.28;5102346;28;20048;-79
2022/01/06 10:39:15;;;;;;;5.05;3.20;;;;;;;0.29;100.00;99089.50;5102075;28;20036;-79
2022/01/06 10:42:04;;;;;;;6.93;4.93;;;;;;;0.23;100.00;99115.25;5116747;28;20044;-79
2022/01/06 10:44:57;;;;;;;5.20;2.65;;;;;;;0.27;100.00;99109.25;5102299;28;20035;-78
2022/01/06 10:47:45;;;;;;;6.25;2.33;;;;;;;0.59;100.00;99116.28;5087928;28;20036;-80
2022/01/06 10:50:33;;;;;;;8.95;6.97;;;;;;;0.84;100.00;99115.47;5101613;28;20097;-78
2022/01/06 10:53:17;;;;;;;5.45;3.10;;;;;;;0.92;100.00;99120.69;5116431;28;20043;-78
2022/01/06 10:56:02;;;;;;;8.35;5.18;;;;;;;0.77;100.00;99121.47;5117217;28;20047;-78
2022/01/06 10:58:46;;;;;;;8.90;4.78;;;;;;;0.73;100.00;99124.91;5087809;28;20039;-79
2022/01/06 11:01:33;;;;;;;7.13;3.83;;;;;;;0.70;100.00;99130.91;5102180;28;20047;-79
2022/01/06 11:04:17;;;;;;;11.85;6.10;;;;;;;0.64;100.00;99137.75;5115914;28;20492;-79
2022/01/06 11:07:02;;;;;;;40.17;24.38;;;;;;;0.68;100.00;99134.34;5086706;28;20036;-79
2022/01/06 11:09:48;;;;;;;76.60;39.33;;;;;;;0.54;100.00;99146.31;5101876;28;20036;-79
2022/01/06 11:12:35;;;;;;;116.45;44.65;;;;;;;0.44;100.00;99141.09;5116987;28;20055;-79
2022/01/06 11:15:19;;;;;;;16.00;6.47;;;;;;;0.47;100.00;99148.00;5101376;28;20060;-78
2022/01/06 11:18:05;;;;;;;13.88;6.45;;;;;;;0.45;100.00;99135.09;5101270;28;20067;-79
2022/01/06 11:20:51;;;;;;;5.18;2.75;;;;;;;0.51;100.00;99142.00;5101821;28;20047;-78
2022/01/06 11:23:36;;;;;;;17.92;10.30;;;;;;;0.72;100.00;99156.72;5086977;28;20050;-78
2022/01/06 11:26:23;;;;;;;13.63;8.27;;;;;;;0.88;100.00;99160.22;5119925;28;20039;-78
2022/01/06 11:29:08;;;;;;;8.40;4.07;;;;;;;0.72;100.00;99154.13;5105549;28;20044;-78
2022/01/06 11:31:53;;;;;;;15.85;8.88;;;;;;;0.71;100.00;99152.41;5120555;28;20044;-79
2022/01/06 11:34:38;;;;;;;10.18;5.85;;;;;;;0.76;100.00;99170.47;5120151;28;20040;-79
2022/01/06 11:37:22;;;;;;;9.38;3.38;;;;;;;0.60;100.00;99169.53;5105671;28;20483;-79
2022/01/06 11:40:07;;;;;;;7.90;3.90;;;;;;;0.54;100.00;99149.75;5104926;28;20381;-79
2022/01/06 11:42:56;;;;;;;8.00;3.53;;;;;;;0.51;100.00;99159.19;5120228;28;20348;-79
2022/01/06 11:45:41;;;;;;;8.43;3.58;;;;;;;0.37;100.00;99165.13;5090610;28;20097;-79
2022/01/06 11:48:25;;;;;;;5.45;2.42;;;;;;;0.34;100.00;99167.69;5119773;28;20047;-79
2022/01/06 11:51:22;;;;;;;6.50;2.90;;;;;;;0.34;100.00;99177.13;5104566;28;20420;-79
2022/01/06 11:54:18;;;;;;;9.27;4.53;;;;;;;0.21;100.00;99173.63;5102084;28;20047;-78
2022/01/06 11:57:03;;;;;;;10.10;4.15;;;;;;;0.20;100.00;99148.72;5090472;28;20044;-79
2022/01/06 11:59:47;;;;;;;12.40;4.82;;;;;;;0.36;100.00;99178.00;5105119;28;20047;-79
2022/01/06 12:02:31;;;;;;;5.80;2.88;;;;;;;0.43;100.00;99169.47;5090343;28;20473;-79
2022/01/06 12:05:16;;;;;;;9.65;3.38;;;;;;;0.54;100.00;99174.66;5090874;28;20048;-79
2022/01/06 12:08:00;;;;;;;11.13;3.40;;;;;;;0.52;100.00;99178.94;5104470;28;20424;-78
2022/01/06 12:10:48;;;;;;;9.57;3.17;;;;;;;0.43;100.00;99197.81;5090256;28;20073;-79
2022/01/06 12:13:43;;;;;;;9.40;2.60;;;;;;;0.44;100.00;99177.19;5104401;28;20047;-79
2022/01/06 12:16:39;;;;;;;10.45;4.00;;;;;;;0.43;100.00;99187.50;5090120;28;20039;-79
2022/01/06 12:19:23;;;;;;;5.60;2.80;;;;;;;0.54;100.00;99190.97;5104290;28;20048;-79
2022/01/06 12:22:11;;;;;;;13.85;3.75;;;;;;;0.44;100.00;99191.78;5104477;28;20416;-79
2022/01/06 12:25:06;;;;;;;16.30;7.47;;;;;;;0.46;100.00;99195.25;5104117;28;20046;-79
2022/01/06 12:27:55;;;;;;;6.95;3.20;;;;;;;0.43;100.00;99192.66;5104545;28;20044;-79
2022/01/06 12:30:40;;;;;;;10.55;8.02;;;;;;;0.46;100.00;99210.72;5119142;28;20412;-79
2022/01/06 12:33:24;;;;;;;5.38;3.13;;;;;;;0.35;100.00;99212.34;5090195;28;20047;-80
2022/01/06 12:36:08;;;;;;;6.05;3.10;;;;;;;0.30;100.00;99217.47;5118586;28;20040;-79
2022/01/06 12:38:53;;;;;;;8.02;5.00;;;;;;;0.22;100.00;99227.69;5119235;28;20096;-79
2022/01/06 12:41:39;;;;;;;18.85;6.15;;;;;;;0.07;100.00;99231.91;5089791;28;20043;-79
2022/01/06 12:44:27;;;;;;;7.90;2.78;;;;;;;0.13;100.00;99237.06;5089880;28;20044;-79
2022/01/06 12:47:12;;;;;;;5.30;2.25;;;;;;;0.00;100.00;99238.72;5101135;28;20047;-79
2022/01/06 12:50:00;;;;;;;9.40;4.32;;;;;;;-0.17;100.00;99247.97;5103383;28;20119;-78
2022/01/06 12:52:46;;;;;;;16.00;7.00;;;;;;;-0.32;100.00;99248.72;5102480;28;20052;-79
2022/01/06 12:55:31;;;;;;;16.88;8.23;;;;;;;-0.21;100.00;99262.53;5101658;28;20143;-78
2022/01/06 12:58:30;;;;;;;15.13;6.85;;;;;;;-0.41;100.00;99261.50;5102888;28;20048;-78